Terminal Aerodrome Forecast
Issued by NWS Duluth, MN

Home | Current Version | Previous Version | Text Only | Print | Product List | Glossary On
Versions: 1 2 3 4 5 6 7 8 9 10 11 12 13 14 15 16 17 18 19 20 21 22 23 24 25 26 27 28
000
FTUS43 KDLH 200315 AAB
TAFDLH
TAF AMD
KDLH 200315Z 2003/2024 16006KT P6SM OVC070
     FM200800 19005KT 4SM BR OVC015
     FM201300 13004KT 1/4SM -FZDZ FG VV002
     FM202100 12008KT 1 1/2SM -RA BR OVC003=

USA.gov is the U.S. government's official web portal to all federal, state and local government web resources and services.